Terminal Aerodrome Forecast
Issued by NWS

Home | Current Version | Previous Version | Text Only | Print | Product List | Glossary Off
Versions: 1 2 3 4 5 6 7 8 9 10 11 12 13 14 15 16 17 18 19 20 21

036
FTUS43 KBIS 161007 AAA
TAFDIK
TAF AMD
KDIK 161007Z 1610/1706 21011KT P6SM SKC
     FM161800 24016G25KT P6SM BKN250
     FM170100 26011KT P6SM BKN120=

USA.gov is the U.S. government's official web portal to all federal, state and local government web resources and services.